Time;durP1;ratioP1;P1;durP2;ratioP2;P2;SDS_P1;SDS_P2;PMS_P1;PMS_P2;Temp;Humidity;BMP_temperature;BMP_pressure;BME280_temperature;BME280_humidity;BME280_pressure;Samples;Min_cycle;Max_cycle;Signal;HPM_P1;HPM_P2
2021/11/01 00:01:00;;;;;;;2.87;2.67;;;12.50;99.90;;;;;;5072152;28;20661;-85
2021/11/01 00:03:27;;;;;;;3.60;2.73;;;;;;;;;;5072832;28;20621;-85
2021/11/01 00:05:55;;;;;;;2.77;2.57;;;;;;;;;;5072975;28;20620;-84
2021/11/01 00:08:22;;;;;;;2.73;2.40;;;;;;;;;;5072216;28;20676;-84
2021/11/01 00:10:49;;;;;;;3.57;2.50;;;;;;;;;;5072316;28;20659;-84
2021/11/01 00:13:17;;;;;;;2.70;2.50;;;;;;;;;;5072302;28;20679;-84
2021/11/01 00:15:45;;;;;;;2.60;2.40;;;;;;;;;;5072899;28;20613;-85
2021/11/01 00:18:12;;;;;;;4.33;3.20;;;;;;;;;;5070429;28;21162;-85
2021/11/01 00:20:39;;;;;;;2.53;2.33;;;;;;;;;;5067900;28;20727;-85
2021/11/01 00:23:07;;;;;;;3.13;2.83;;;;;;;;;;5072567;28;20717;-84
2021/11/01 00:25:34;;;;;;;3.20;2.73;;;;;;;;;;5072467;28;20661;-84
2021/11/01 00:28:03;;;;;;;4.60;2.93;;;;;;;;;;5071186;28;20711;-85
2021/11/01 00:30:30;;;;;;;2.13;1.93;;;;;;;;;;5072218;28;20671;-84
2021/11/01 00:32:58;;;;;;;2.07;1.87;;;;;;;;;;5072359;28;20707;-84
2021/11/01 00:35:25;;;;;;;2.60;1.83;;;;;;;;;;5072232;28;20674;-84
2021/11/01 00:37:53;;;;;;;2.70;2.00;;;;;;;;;;5071684;28;20720;-84
2021/11/01 00:40:20;;;;;;;2.10;1.20;;;;;;;;;;5071083;28;20662;-84
2021/11/01 00:42:47;;;;;;;1.13;1.07;;;;;;;;;;5072224;28;20653;-84
2021/11/01 00:45:14;;;;;;;3.30;1.50;;;;;;;;;;5072365;28;20653;-84
2021/11/01 00:47:41;;;;;;;1.27;1.17;;;;;;;;;;5069783;28;21211;-85
2021/11/01 00:50:10;;;;;;;1.10;1.10;;;;;;;;;;5072059;28;20620;-86
2021/11/01 00:52:38;;;;;;;2.13;0.93;;;;;;;;;;5072027;28;21234;-85
2021/11/01 00:55:09;;;;;;;1.70;1.40;;;;;;;;;;5071477;28;21078;-85
2021/11/01 00:57:36;;;;;;;1.77;1.30;;;;;;;;;;5071244;28;21167;-84
2021/11/01 01:00:06;;;;;;;1.20;1.10;;;14.10;99.90;;;;;;5071676;28;20650;-86
2021/11/01 01:02:33;;;;;;;1.37;1.27;;;;;;;;;;5071698;28;20622;-85
2021/11/01 01:05:01;;;;;;;1.50;1.40;;;;;;;;;;5071802;28;20621;-85
2021/11/01 01:07:30;;;;;;;1.20;0.97;;;;;;;;;;5063858;28;20661;-85
2021/11/01 01:09:57;;;;;;;0.97;0.97;;;;;;;;;;5062905;28;20649;-85
2021/11/01 01:12:24;;;;;;;1.10;0.90;;;;;;;;;;5071429;28;20610;-85
2021/11/01 01:14:56;;;;;;;0.90;0.80;;;;;;;;;;5066015;28;20703;-84
2021/11/01 01:17:24;;;;;;;1.27;1.17;;;;;;;;;;5070964;28;20656;-85
2021/11/01 01:19:57;;;;;;;1.10;1.07;;;;;;;;;;5070694;28;20637;-85
2021/11/01 01:22:34;;;;;;;0.97;0.87;;;;;;;;;;5071397;28;21174;-85
2021/11/01 01:25:14;;;;;;;1.10;1.00;;;14.40;99.90;;;;;;5071476;28;20609;-85
2021/11/01 01:27:41;;;;;;;1.30;0.90;;;;;;;;;;5067625;28;21014;-86
2021/11/01 01:30:09;;;;;;;1.23;0.97;;;;;;;;;;5070928;28;20708;-86
2021/11/01 01:32:37;;;;;;;1.00;0.90;;;;;;;;;;5070860;28;20698;-85
2021/11/01 01:35:04;;;;;;;1.33;1.17;;;;;;;;;;5071267;28;20693;-86
2021/11/01 01:37:31;;;;;;;1.20;1.10;;;;;;;;;;5070703;28;20614;-86
2021/11/01 01:39:59;;;;;;;1.37;1.27;;;;;;;;;;5070802;28;20668;-85
2021/11/01 01:42:27;;;;;;;1.27;1.13;;;;;;;;;;5070755;28;21243;-86
2021/11/01 01:44:55;;;;;;;1.10;1.00;;;;;;;;;;5070615;28;20614;-85
2021/11/01 01:47:22;;;;;;;0.80;0.80;;;;;;;;;;5069350;28;20719;-86
2021/11/01 01:49:49;;;;;;;0.83;0.73;;;;;;;;;;5070861;28;20618;-85
2021/11/01 01:52:16;;;;;;;0.87;0.87;;;;;;;;;;5070901;28;20644;-86
2021/11/01 01:54:44;;;;;;;1.30;0.80;;;;;;;;;;5070638;28;20709;-86
2021/11/01 01:57:11;;;;;;;0.97;0.97;;;;;;;;;;5069172;28;20638;-85
2021/11/01 01:59:39;;;;;;;1.07;0.97;;;;;;;;;;5070112;28;20641;-84
2021/11/01 02:02:07;;;;;;;1.43;1.13;;;;;;;;;;5069598;28;20649;-86
2021/11/01 02:04:35;;;;;;;2.10;1.33;;;;;;;;;;5070101;28;20613;-86
2021/11/01 02:07:19;;;;;;;1.50;1.40;;;14.10;99.90;;;;;;5067023;28;20973;-85
2021/11/01 02:09:56;;;;;;;2.30;1.30;;;13.80;99.90;;;;;;5058311;28;20673;-85
2021/11/01 02:12:29;;;;;;;1.47;1.37;;;13.50;99.90;;;;;;5070271;28;20617;-85
2021/11/01 02:15:01;;;;;;;1.90;1.13;;;13.50;99.90;;;;;;5070831;28;20628;-84
2021/11/01 02:17:30;;;;;;;1.07;0.97;;;13.30;99.90;;;;;;5069222;28;20620;-86
2021/11/01 02:20:01;;;;;;;1.50;0.87;;;13.30;99.90;;;;;;5069915;28;20626;-85
2021/11/01 02:22:34;;;;;;;0.80;0.80;;;;;;;;;;5065091;28;20621;-85
2021/11/01 02:25:06;;;;;;;2.40;1.20;;;;;;;;;;5070563;28;20671;-83
2021/11/01 02:27:37;;;;;;;1.03;0.97;;;;;;;;;;5069695;28;20621;-85
2021/11/01 02:30:06;;;;;;;1.30;1.17;;;12.60;99.90;;;;;;5069894;28;20650;-84
2021/11/01 02:32:35;;;;;;;1.60;1.23;;;12.50;99.90;;;;;;5069700;28;20665;-85
2021/11/01 02:35:04;;;;;;;1.07;0.90;;;;;;;;;;5070023;28;20683;-85
2021/11/01 02:37:31;;;;;;;3.47;1.57;;;;;;;;;;5069862;28;20613;-85
2021/11/01 02:39:59;;;;;;;0.73;0.73;;;12.30;99.90;;;;;;5069507;28;20622;-84
2021/11/01 02:42:28;;;;;;;2.23;0.70;;;12.20;99.90;;;;;;5069820;28;21389;-84
2021/11/01 02:44:58;;;;;;;2.30;0.80;;;12.10;99.90;;;;;;5069968;28;20610;-84
2021/11/01 02:47:27;;;;;;;2.87;0.80;;;12.00;99.90;;;;;;5067573;28;20638;-84
2021/11/01 02:49:55;;;;;;;2.10;0.70;;;11.90;99.90;;;;;;5069941;28;20683;-85
2021/11/01 02:52:22;;;;;;;1.60;0.70;;;;;;;;;;5070095;28;20740;-84
2021/11/01 02:54:50;;;;;;;1.10;0.70;;;;;;;;;;5069951;28;20614;-85
2021/11/01 02:57:17;;;;;;;1.37;0.70;;;;;;;;;;5068906;28;20629;-85
2021/11/01 02:59:44;;;;;;;1.00;0.70;;;;;;;;;;5069404;28;20618;-85
2021/11/01 03:02:13;;;;;;;1.60;0.60;;;;;;;;;;5069294;28;20708;-85
2021/11/01 03:04:40;;;;;;;1.37;0.53;;;;;;;;;;5069916;28;20618;-85
2021/11/01 03:07:08;;;;;;;1.47;0.57;;;;;;;;;;5065394;28;20673;-86
2021/11/01 03:09:38;;;;;;;0.70;0.70;;;11.60;99.90;;;;;;5056009;28;20811;-85
2021/11/01 03:12:08;;;;;;;1.60;0.43;;;11.50;99.90;;;;;;5073813;28;20613;-85
2021/11/01 03:14:41;;;;;;;1.40;0.87;;;11.40;99.90;;;;;;5073014;28;20617;-85
2021/11/01 03:17:12;;;;;;;1.67;0.50;;;11.40;99.90;;;;;;5099785;28;20760;-85
2021/11/01 03:19:43;;;;;;;0.70;0.40;;;11.50;99.90;;;;;;5074037;28;20669;-85
2021/11/01 03:22:12;;;;;;;1.00;0.40;;;;;;;;;;5073872;28;20621;-84
2021/11/01 03:24:44;;;;;;;1.43;0.40;;;11.30;99.90;;;;;;5073678;28;20619;-85
2021/11/01 03:27:12;;;;;;;1.47;0.73;;;;;;;;;;5072282;28;20630;-85
2021/11/01 03:29:42;;;;;;;2.67;0.63;;;;;;;;;;5073691;28;20712;-83
2021/11/01 03:32:10;;;;;;;4.50;0.90;;;;;;;;;;5074017;28;20654;-83
2021/11/01 03:34:38;;;;;;;0.70;0.50;;;;;;;;;;5073682;28;20640;-83
2021/11/01 03:37:10;;;;;;;1.53;0.83;;;;;;;;;;5072759;28;20691;-83
2021/11/01 03:39:38;;;;;;;1.80;0.50;;;;;;;;;;5052933;28;20688;-83
2021/11/01 03:42:07;;;;;;;3.07;0.50;;;;;;;;;;5070831;28;20672;-83
2021/11/01 03:44:36;;;;;;;4.30;1.30;;;;;;;;;;5067460;28;20730;-83
2021/11/01 03:47:05;;;;;;;3.27;0.60;;;;;;;;;;5071394;28;20621;-83
2021/11/01 03:49:36;;;;;;;0.50;0.47;;;;;;;;;;5072636;28;20665;-83
2021/11/01 03:52:09;;;;;;;1.10;0.80;;;;;;;;;;5072391;28;20624;-83
2021/11/01 03:54:39;;;;;;;2.23;0.83;;;10.80;99.90;;;;;;5072958;28;20729;-83
2021/11/01 03:57:07;;;;;;;2.10;1.27;;;10.80;99.90;;;;;;5072251;28;20617;-83
2021/11/01 03:59:35;;;;;;;2.40;1.27;;;;;;;;;;5071454;28;20626;-82
2021/11/01 04:02:02;;;;;;;0.73;0.57;;;;;;;;;;5072365;28;20653;-83
2021/11/01 04:04:29;;;;;;;2.90;0.80;;;;;;;;;;5072143;28;20617;-83
2021/11/01 04:06:57;;;;;;;3.30;1.20;;;;;;;;;;5072301;28;20620;-82
2021/11/01 04:09:25;;;;;;;2.20;0.73;;;;;;;;;;5072409;28;20735;-83
2021/11/01 04:11:54;;;;;;;1.50;0.80;;;;;;;;;;5072872;28;20674;-82
2021/11/01 04:14:23;;;;;;;0.63;0.63;;;;;;;;;;5072395;28;20705;-82
2021/11/01 04:16:54;;;;;;;2.87;1.00;;;10.50;99.90;;;;;;5071811;28;20664;-83
2021/11/01 04:19:35;;;;;;;1.73;0.90;;;;;;;;;;5072444;28;21488;-83
2021/11/01 04:22:03;;;;;;;0.70;0.70;;;;;;;;;;5071791;28;20614;-82
2021/11/01 04:24:31;;;;;;;3.60;0.70;;;;;;;;;;5072222;28;20943;-82
2021/11/01 04:27:00;;;;;;;1.33;0.80;;;10.70;99.90;;;;;;5071867;28;20708;-82
2021/11/01 04:29:30;;;;;;;2.67;1.20;;;;;;;;;;5071345;28;20642;-82
2021/11/01 04:32:07;;;;;;;0.90;0.60;;;;;;;;;;5072301;28;20617;-82
2021/11/01 04:34:37;;;;;;;2.30;1.00;;;;;;;;;;5072267;28;20605;-82
2021/11/01 04:37:05;;;;;;;0.60;0.60;;;10.20;99.90;;;;;;5071635;28;20630;-82
2021/11/01 04:39:43;;;;;;;1.90;0.83;;;;;;;;;;5066392;28;21029;-82
2021/11/01 04:53:14;;;;;;;2.30;1.00;;;;;;;;;;5061869;28;20614;-83
2021/11/01 04:55:43;;;;;;;1.50;1.07;;;10.50;99.90;;;;;;5071638;28;20797;-83
2021/11/01 04:58:12;;;;;;;1.90;1.20;;;;;;;;;;5070847;28;20622;-83
2021/11/01 05:00:40;;;;;;;2.47;0.80;;;;;;;;;;5071149;28;20625;-83
2021/11/01 05:03:11;;;;;;;1.13;0.97;;;;;;;;;;5071394;28;20713;-83
2021/11/01 05:05:38;;;;;;;3.60;1.10;;;;;;;;;;5071925;28;20679;-83
2021/11/01 05:08:06;;;;;;;1.87;0.80;;;;;;;;;;5065215;28;21373;-83
2021/11/01 05:10:36;;;;;;;1.43;0.70;;;;;;;;;;5071626;28;21190;-82
2021/11/01 05:13:11;;;;;;;1.53;0.70;;;;;;;;;;5071748;28;20633;-82
2021/11/01 05:15:44;;;;;;;2.63;1.20;;;10.60;99.90;;;;;;5071545;28;20617;-81
2021/11/01 05:18:20;;;;;;;2.37;0.50;;;;;;;;;;5070811;28;21021;-83
2021/11/01 05:20:53;;;;;;;0.70;0.70;;;;;;;;;;5071527;28;21048;-82
2021/11/01 05:23:29;;;;;;;1.57;0.93;;;;;;;;;;5071622;28;20626;-82
2021/11/01 05:25:59;;;;;;;4.83;0.93;;;;;;;;;;5071145;28;20728;-81
2021/11/01 05:28:39;;;;;;;1.20;1.10;;;;;;;;;;5070155;28;20633;-82
2021/11/01 05:31:13;;;;;;;1.77;0.80;;;;;;;;;;5071195;28;21235;-83
2021/11/01 05:33:52;;;;;;;2.93;1.10;;;;;;;;;;5071177;28;20618;-83
2021/11/01 05:36:20;;;;;;;1.03;0.80;;;;;;;;;;5070776;28;20745;-83
2021/11/01 05:38:48;;;;;;;0.60;0.60;;;;;;;;;;5065452;28;20665;-83
2021/11/01 05:41:15;;;;;;;2.90;1.00;;;;;;;;;;5060492;28;20709;-83
2021/11/01 05:43:42;;;;;;;2.20;0.83;;;;;;;;;;5050897;28;20658;-83
2021/11/01 05:46:12;;;;;;;1.40;0.90;;;;;;;;;;5049866;28;20615;-82
2021/11/01 05:48:46;;;;;;;1.80;1.17;;;;;;;;;;5059215;28;20987;-82
2021/11/01 05:51:15;;;;;;;1.03;1.03;;;;;;;;;;5071111;28;20663;-82
2021/11/01 05:53:44;;;;;;;0.93;0.87;;;;;;;;;;5068457;28;20626;-82
2021/11/01 05:56:25;;;;;;;6.03;1.10;;;;;;;;;;5068256;28;20691;-81
2021/11/01 05:59:04;;;;;;;0.97;0.97;;;;;;;;;;5070846;28;20679;-82
2021/11/01 06:04:19;;;;;;;1.80;1.20;;;;;;;;;;5062678;28;20626;-82
2021/11/01 06:07:00;;;;;;;2.10;0.80;;;;;;;;;;5069750;28;20610;-83
2021/11/01 06:09:48;;;;;;;3.57;1.50;;;;;;;;;;5050260;28;20650;-82
2021/11/01 06:15:01;;;;;;;1.90;0.87;;;;;;;;;;5057823;28;20676;-83
2021/11/01 06:17:31;;;;;;;0.80;0.77;;;;;;;;;;5069699;28;20630;-82
2021/11/01 06:19:59;;;;;;;1.13;0.90;;;;;;;;;;5069635;28;20625;-82
2021/11/01 06:22:27;;;;;;;30.57;1.40;;;;;;;;;;5070439;28;20602;-83
2021/11/01 06:24:57;;;;;;;0.90;0.80;;;;;;;;;;5069945;28;20617;-83
2021/11/01 06:27:24;;;;;;;1.00;0.90;;;;;;;;;;5071623;28;21190;-83
2021/11/01 06:29:59;;;;;;;3.10;1.60;;;10.30;99.90;;;;;;5086842;28;20995;-83
2021/11/01 06:32:33;;;;;;;0.97;0.80;;;;;;;;;;5083556;28;21207;-83
2021/11/01 06:40:58;;;;;;;2.40;0.80;;;;;;;;;;5068565;28;20663;-83
2021/11/01 06:43:27;;;;;;;0.40;0.40;;;;;;;;;;5070316;28;20685;-83
2021/11/01 06:51:50;;;;;;;10.93;0.90;;;;;;;;;;5045371;28;20626;-83
2021/11/01 06:54:41;;;;;;;1.10;0.70;;;;;;;;;;5069998;28;20637;-83
2021/11/01 06:57:27;;;;;;;5.60;0.60;;;;;;;;;;5069460;28;20621;-83
2021/11/01 07:16:29;;;;;;;1.20;1.10;;;;;;;;;;5068428;28;21204;-85
2021/11/01 07:19:01;;;;;;;1.90;1.60;;;;;;;;;;5067824;28;20664;-85
2021/11/01 07:21:40;;;;;;;0.80;0.77;;;;;;;;;;5084691;28;20617;-85
2021/11/01 07:38:41;;;;;;;1.30;1.20;;;9.90;99.90;;;;;;5069708;28;20610;-85
2021/11/01 08:28:25;;;;;;;2.67;1.10;;;;;;;;;;5055986;28;20679;-85
2021/11/01 08:45:09;;;;;;;0.90;0.90;;;;;;;;;;5045924;28;20637;-84
2021/11/01 08:47:49;;;;;;;1.10;1.00;;;9.90;99.90;;;;;;5070787;28;20620;-84
2021/11/01 09:01:28;;;;;;;1.00;1.00;;;;;;;;;;5072092;28;20618;-83
2021/11/01 09:04:05;;;;;;;0.80;0.70;;;;;;;;;;5071578;28;20687;-83
2021/11/01 09:20:59;;;;;;;1.10;1.00;;;;;;;;;;5028926;28;20659;-84
2021/11/01 09:23:42;;;;;;;4.10;0.90;;;;;;;;;;5064728;28;20669;-83
2021/11/01 09:26:13;;;;;;;0.77;0.77;;;;;;;;;;5051619;28;20714;-84
2021/11/01 09:28:44;;;;;;;1.33;1.17;;;10.10;99.90;;;;;;5050854;28;20633;-84
2021/11/01 09:36:47;;;;;;;1.27;0.63;;;10.10;99.90;;;;;;5070508;28;20649;-84
2021/11/01 09:39:43;;;;;;;1.57;1.00;;;;;;;;;;5071020;28;20622;-85
2021/11/01 09:42:11;;;;;;;1.83;0.87;;;;;;;;;;5070666;28;20704;-85
2021/11/01 09:44:38;;;;;;;2.00;0.63;;;;;;;;;;5070920;28;20629;-85
2021/11/01 09:47:05;;;;;;;2.50;1.00;;;10.20;99.90;;;;;;5069652;28;20625;-84
2021/11/01 09:49:33;;;;;;;0.63;0.63;;;;;;;;;;5071037;28;21045;-85
2021/11/01 09:52:08;;;;;;;1.53;1.00;;;10.30;99.90;;;;;;5070718;28;20618;-85
2021/11/01 09:54:37;;;;;;;1.80;0.90;;;;;;;;;;5070017;28;21202;-86
2021/11/01 09:57:08;;;;;;;1.00;0.90;;;10.30;99.90;;;;;;5070311;28;20652;-85
2021/11/01 09:59:37;;;;;;;1.50;0.70;;;10.40;99.90;;;;;;5070894;28;20641;-85
2021/11/01 10:02:05;;;;;;;1.20;1.10;;;;;;;;;;5070486;28;20621;-86
2021/11/01 10:04:34;;;;;;;4.00;1.30;;;10.40;99.90;;;;;;5070216;28;20661;-86
2021/11/01 10:07:20;;;;;;;0.73;0.73;;;9.90;99.90;;;;;;5068892;28;20667;-87
2021/11/01 10:09:47;;;;;;;2.30;1.13;;;;;;;;;;5051024;28;20997;-87
2021/11/01 10:12:18;;;;;;;1.27;0.77;;;;;;;;;;5050690;28;21296;-86
2021/11/01 10:14:47;;;;;;;0.83;0.83;;;10.30;99.90;;;;;;5060309;28;20683;-86
2021/11/01 10:19:59;;;;;;;1.30;1.30;;;;;;;;;;5069834;28;21242;-87
2021/11/01 10:22:34;;;;;;;0.80;0.73;;;10.20;99.90;;;;;;5070445;28;20670;-86
2021/11/01 10:25:05;;;;;;;0.70;0.70;;;10.20;99.90;;;;;;5070089;28;20654;-86
2021/11/01 10:27:34;;;;;;;4.47;1.00;;;10.30;99.90;;;;;;5069756;28;20699;-86
2021/11/01 10:30:04;;;;;;;0.97;0.73;;;10.30;99.90;;;;;;5069605;28;20682;-85
2021/11/01 10:32:33;;;;;;;2.20;0.93;;;10.40;99.90;;;;;;5070262;28;21077;-85
2021/11/01 10:35:23;;;;;;;0.70;0.70;;;10.40;99.90;;;;;;5052472;28;20622;-86
2021/11/01 10:38:14;;;;;;;2.07;0.90;;;;;;;;;;5068658;28;20642;-86
2021/11/01 10:40:53;;;;;;;0.97;0.80;;;10.20;99.90;;;;;;5068152;28;20644;-86
2021/11/01 10:43:39;;;;;;;1.10;1.00;;;10.30;99.90;;;;;;5070474;28;20644;-86
2021/11/01 11:13:59;;;;;;;2.57;1.53;;;;;;;;;;5067090;28;20649;-87
2021/11/01 11:16:50;;;;;;;1.93;1.30;;;10.40;99.90;;;;;;5070359;28;20618;-86
2021/11/01 11:19:25;;;;;;;2.60;1.20;;;10.50;99.90;;;;;;5070456;28;20622;-86
2021/11/01 11:22:15;;;;;;;2.20;1.53;;;;;;;;;;5069688;28;20703;-86
2021/11/01 11:30:51;;;;;;;1.23;1.10;;;;;;;;;;5059479;28;20702;-86
2021/11/01 11:47:24;;;;;;;1.83;1.23;;;;;;;;;;5073556;28;20598;-84
2021/11/01 11:49:54;;;;;;;4.20;1.40;;;;;;;;;;5073237;28;21035;-86
2021/11/01 11:52:22;;;;;;;1.50;1.40;;;;;;;;;;5073260;28;20714;-86
2021/11/01 11:54:53;;;;;;;3.93;1.33;;;10.60;99.90;;;;;;5073446;28;21210;-86
2021/11/01 11:57:20;;;;;;;1.40;1.30;;;;;;;;;;5072887;28;20628;-84
2021/11/01 11:59:48;;;;;;;3.70;1.30;;;10.50;99.90;;;;;;5072761;28;20669;-85
2021/11/01 12:02:28;;;;;;;1.00;1.00;;;10.60;99.90;;;;;;5073133;28;20730;-86
2021/11/01 12:05:05;;;;;;;1.20;1.10;;;;;;;;;;5073506;28;21042;-85
2021/11/01 12:07:41;;;;;;;2.23;1.27;;;10.60;99.90;;;;;;5073066;28;20664;-85
2021/11/01 12:10:20;;;;;;;1.70;1.20;;;10.50;99.90;;;;;;5072729;28;20656;-86
2021/11/01 12:13:01;;;;;;;2.20;1.50;;;;;;;;;;5073367;28;20667;-85
2021/11/01 12:18:14;;;;;;;0.83;0.83;;;;;;;;;;5072477;28;20617;-85
2021/11/01 12:20:41;;;;;;;1.73;1.40;;;;;;;;;;5073131;28;20618;-86
2021/11/01 12:23:11;;;;;;;1.47;1.37;;;;;;;;;;5072777;28;20717;-86
2021/11/01 12:25:48;;;;;;;1.20;1.10;;;10.80;99.90;;;;;;5072599;28;20614;-87
2021/11/01 12:28:19;;;;;;;1.00;1.00;;;;;;;;;;5069234;28;20953;-85
2021/11/01 12:30:49;;;;;;;1.17;0.80;;;;;;;;;;5070134;28;20688;-86
2021/11/01 12:36:53;;;;;;;1.20;1.10;;;10.60;99.90;;;;;;5072334;28;20660;-86
2021/11/01 12:39:28;;;;;;;1.50;1.07;;;10.60;99.90;;;;;;5072118;28;20626;-85
2021/11/01 12:42:09;;;;;;;2.70;1.67;;;;;;;;;;5069244;28;20704;-85
2021/11/01 12:58:43;;;;;;;2.50;1.40;;;;;;;;;;5066789;28;20243;-86
2021/11/01 13:01:13;;;;;;;1.23;1.17;;;;;;;;;;5070231;28;20641;-85
2021/11/01 13:03:41;;;;;;;1.70;1.60;;;;;;;;;;5069083;28;20679;-85
2021/11/01 13:06:12;;;;;;;1.27;1.17;;;;;;;;;;5065967;28;20634;-88
2021/11/01 13:08:49;;;;;;;3.37;1.40;;;10.60;99.90;;;;;;5070400;28;20614;-86
2021/11/01 13:11:29;;;;;;;2.80;1.63;;;;;;;;;;5054242;28;21024;-86
2021/11/01 13:14:24;;;;;;;3.53;1.70;;;10.60;99.90;;;;;;5059653;28;21186;-86
2021/11/01 13:19:46;;;;;;;2.77;2.30;;;;;;;;;;5069155;28;20634;-87
2021/11/01 13:22:16;;;;;;;1.83;1.50;;;;;;;;;;5070213;28;20675;-86
2021/11/01 13:24:51;;;;;;;1.50;1.40;;;;;;;;;;5070597;28;20633;-86
2021/11/01 13:36:07;;;;;;;2.00;1.80;;;;;;;;;;5070684;28;20636;-87
2021/11/01 13:38:34;;;;;;;2.40;1.80;;;;;;;;;;5065498;28;21287;-87
2021/11/01 13:41:08;;;;;;;2.00;1.90;;;;;;;;;;5066335;28;20610;-86
2021/11/01 13:43:37;;;;;;;2.10;1.90;;;;;;;;;;5062927;28;20652;-87
2021/11/01 13:46:05;;;;;;;2.03;1.70;;;;;;;;;;5062502;28;20626;-87
2021/11/01 13:48:33;;;;;;;2.80;1.53;;;10.70;99.90;;;;;;5067724;28;20630;-87
2021/11/01 13:51:07;;;;;;;2.23;2.03;;;10.80;99.90;;;;;;5060773;28;21091;-87
2021/11/01 13:53:39;;;;;;;2.27;2.07;;;;;;;;;;5067658;28;20618;-88
2021/11/01 13:56:26;;;;;;;2.60;1.77;;;10.70;99.90;;;;;;5070594;28;20626;-86
2021/11/01 13:58:58;;;;;;;1.83;1.57;;;;;;;;;;5071137;28;20632;-87
2021/11/01 14:01:38;;;;;;;2.30;2.10;;;;;;;;;;5071203;28;20618;-87
2021/11/01 14:15:13;;;;;;;2.30;1.77;;;;;;;;;;5064650;28;20662;-88
2021/11/01 14:18:16;;;;;;;2.20;1.70;;;;;;;;;;5069990;28;21009;-87
2021/11/01 14:29:16;;;;;;;1.77;1.67;;;;;;;;;;5068260;28;21194;-88
2021/11/01 15:19:42;;;;;;;3.90;2.83;;;;;;;;;;5071756;28;20645;-87
2021/11/01 15:22:30;;;;;;;3.83;2.70;;;;;;;;;;5072271;28;20686;-88
2021/11/01 15:25:38;;;;;;;2.90;2.70;;;;;;;;;;5070800;28;21212;-87
2021/11/01 15:33:59;;;;;;;2.47;2.00;;;;;;;;;;5029829;28;20658;-87
2021/11/01 15:36:43;;;;;;;2.70;2.20;;;;;;;;;;5028887;28;20623;-87
2021/11/01 15:39:31;;;;;;;2.13;1.70;;;;;;;;;;5047959;28;20621;-87
2021/11/01 16:18:05;;;;;;;4.50;2.50;;;;;;;;;;5063601;28;20664;-86
2021/11/01 16:20:32;;;;;;;2.80;2.03;;;;;;;;;;5069377;28;21003;-87
2021/11/01 16:23:16;;;;;;;3.70;2.40;;;;;;;;;;5072423;28;20632;-86
2021/11/01 16:25:53;;;;;;;3.33;2.83;;;;;;;;;;5072419;28;20634;-86
2021/11/01 16:28:21;;;;;;;5.70;2.57;;;;;;;;;;5069838;28;20702;-87
2021/11/01 16:30:57;;;;;;;2.90;2.70;;;;;;;;;;5063436;28;20673;-87
2021/11/01 16:33:31;;;;;;;3.27;2.97;;;;;;;;;;5071821;28;20625;-86
2021/11/01 16:36:01;;;;;;;2.50;2.30;;;10.20;99.90;;;;;;5071287;28;20637;-87
2021/11/01 16:38:34;;;;;;;3.30;3.00;;;;;;;;;;5071197;28;20632;-86
2021/11/01 16:41:03;;;;;;;3.00;2.80;;;;;;;;;;5071480;28;20625;-87
2021/11/01 16:43:30;;;;;;;3.07;2.57;;;;;;;;;;5072227;28;20625;-87
2021/11/01 16:45:58;;;;;;;4.60;3.50;;;;;;;;;;5072163;28;21075;-87
2021/11/01 16:48:25;;;;;;;4.37;3.10;;;;;;;;;;5071733;28;21158;-87
2021/11/01 16:50:53;;;;;;;3.47;3.17;;;;;;;;;;5071899;28;20648;-87
2021/11/01 16:53:21;;;;;;;5.90;3.40;;;;;;;;;;5082995;28;20610;-87
2021/11/01 16:55:49;;;;;;;5.20;3.60;;;;;;;;;;5070731;28;20702;-87
2021/11/01 16:58:23;;;;;;;8.73;4.13;;;;;;;;;;5077398;28;20729;-87
2021/11/01 17:00:55;;;;;;;3.63;3.33;;;;;;;;;;5080230;28;20626;-87
2021/11/01 17:03:32;;;;;;;3.93;3.53;;;;;;;;;;5080311;28;20760;-87
2021/11/01 17:06:21;;;;;;;7.97;3.23;;;9.60;99.90;;;;;;5081108;28;20618;-87
2021/11/01 17:22:50;;;;;;;4.60;3.80;;;;;;;;;;5061449;28;20941;-87
2021/11/01 17:25:22;;;;;;;6.00;4.27;;;;;;;;;;5071833;28;20725;-87
2021/11/01 17:30:50;;;;;;;3.77;3.30;;;;;;;;;;5072463;28;20614;-87
2021/11/01 17:36:31;;;;;;;4.60;3.57;;;9.00;99.90;;;;;;5035447;28;20638;-87
2021/11/01 18:40:51;;;;;;;4.73;4.33;;;;;;;;;;5077185;28;20257;-88
2021/11/01 18:43:35;;;;;;;4.37;3.97;;;;;;;;;;5082627;28;20637;-86
2021/11/01 18:51:40;;;;;;;6.60;5.13;;;9.00;99.90;;;;;;5068886;28;20669;-86
2021/11/01 18:54:18;;;;;;;9.40;7.00;;;;;;;;;;5069405;28;20610;-86
2021/11/01 18:56:46;;;;;;;7.40;6.70;;;;;;;;;;5069873;28;20629;-86
2021/11/01 18:59:14;;;;;;;5.83;4.87;;;8.90;99.90;;;;;;5068977;28;20700;-86
2021/11/01 19:01:44;;;;;;;5.93;5.10;;;8.80;99.90;;;;;;5070440;28;20647;-86
2021/11/01 19:04:15;;;;;;;3.93;3.53;;;8.80;99.90;;;;;;5070341;28;20671;-86
2021/11/01 19:06:52;;;;;;;3.87;3.57;;;;;;;;;;5069427;28;20654;-86
2021/11/01 19:09:36;;;;;;;4.30;3.22;;;8.80;99.90;;;;;;5070355;28;21235;-86
2021/11/01 20:03:06;;;;;;;3.40;3.13;;;;;;;;;;5073585;28;20192;-86
2021/11/01 20:05:41;;;;;;;3.08;2.78;;;;;;;;;;5073748;28;20203;-86
2021/11/01 20:08:26;;;;;;;3.97;3.00;;;;;;;;;;5072938;28;20210;-86
2021/11/01 20:11:24;;;;;;;2.63;2.42;;;;;;;;;;5073674;28;20538;-85
2021/11/01 20:14:12;;;;;;;3.85;3.35;;;7.70;99.90;;;;;;5073206;28;20199;-85
2021/11/01 21:26:20;;;;;;;2.95;2.47;;;7.00;99.90;;;;;;5071554;28;20204;-85
2021/11/01 21:28:48;;;;;;;2.40;2.20;;;;;;;;;;5071966;28;20265;-84
2021/11/01 21:31:15;;;;;;;2.50;2.30;;;;;;;;;;5071655;28;20200;-84
2021/11/01 21:33:45;;;;;;;2.90;2.70;;;;;;;;;;5071670;28;20206;-84
2021/11/01 21:36:23;;;;;;;2.97;2.70;;;;;;;;;;5071752;28;20303;-85
2021/11/01 21:38:52;;;;;;;3.45;3.15;;;;;;;;;;5070567;28;20207;-84
2021/11/01 21:41:19;;;;;;;4.82;2.60;;;;;;;;;;5071423;28;20196;-84
2021/11/01 21:43:46;;;;;;;6.15;3.63;;;;;;;;;;5066311;28;20927;-83
2021/11/01 21:46:14;;;;;;;3.83;3.45;;;;;;;;;;5071585;28;20688;-84
2021/11/01 21:48:41;;;;;;;3.65;3.38;;;;;;;;;;5070682;28;20543;-84
2021/11/01 21:51:09;;;;;;;6.40;4.97;;;;;;;;;;5071337;28;20213;-84
2021/11/01 21:53:37;;;;;;;4.13;3.22;;;;;;;;;;5071311;28;20223;-83
2021/11/01 21:56:06;;;;;;;5.57;3.85;;;;;;;;;;5071550;28;20195;-85
2021/11/01 21:58:49;;;;;;;5.00;4.10;;;;;;;;;;5065731;28;20196;-84
2021/11/01 22:09:39;;;;;;;4.72;3.63;;;;;;;;;;5070161;28;20203;-84
2021/11/01 22:10:15;;;;;;;4.03;3.30;;;;;;;;;;5070423;28;20226;-85
2021/11/01 22:18:30;;;;;;;6.07;3.85;;;;;;;;;;5049362;28;20271;-85
2021/11/01 22:21:01;;;;;;;3.55;3.25;;;;;;;;;;5051089;28;20266;-85
2021/11/01 22:23:38;;;;;;;5.15;2.90;;;;;;;;;;5051130;28;20200;-84
2021/11/01 22:26:09;;;;;;;3.38;3.10;;;;;;;;;;5046359;28;20224;-86
2021/11/01 22:34:19;;;;;;;4.45;3.58;;;;;;;;;;5050533;28;20227;-85
2021/11/01 22:39:36;;;;;;;4.25;3.35;;;;;;;;;;5050593;28;20218;-86
2021/11/01 22:42:18;;;;;;;7.07;2.80;;;;;;;;;;5067560;28;20249;-85
2021/11/01 22:44:59;;;;;;;3.53;3.22;;;;;;;;;;5070514;28;20195;-85
2021/11/01 22:55:55;;;;;;;4.05;3.65;;;;;;;;;;5069641;28;20199;-86
2021/11/01 22:58:23;;;;;;;3.80;3.40;;;;;;;;;;5065850;28;20219;-85
2021/11/01 23:00:58;;;;;;;3.72;3.17;;;;;;;;;;5069069;28;20203;-85
2021/11/01 23:03:28;;;;;;;5.18;3.13;;;;;;;;;;5070722;28;20615;-85
2021/11/01 23:33:34;;;;;;;4.45;3.95;;;;;;;;;;5073782;28;20631;-85
2021/11/01 23:36:01;;;;;;;5.85;4.05;;;;;;;;;;5073946;28;20282;-85
2021/11/01 23:38:28;;;;;;;4.18;3.78;;;;;;;;;;5073352;28;20261;-84
2021/11/01 23:40:56;;;;;;;3.22;2.92;;;;;;;;;;5073647;28;20223;-86
2021/11/01 23:43:23;;;;;;;3.40;3.10;;;;;;;;;;5073668;28;20200;-85
2021/11/01 23:45:50;;;;;;;3.78;3.47;;;;;;;;;;5073162;28;20278;-85
2021/11/01 23:48:18;;;;;;;3.30;3.00;;;;;;;;;;5073162;28;20200;-86
2021/11/01 23:50:51;;;;;;;7.53;2.90;;;;;;;;;;5073645;28;20204;-85
2021/11/01 23:53:35;;;;;;;2.97;2.70;;;;;;;;;;5072712;28;20322;-88
2021/11/01 23:56:06;;;;;;;3.55;3.25;;;;;;;;;;5073174;28;20583;-85
2021/11/01 23:58:33;;;;;;;4.80;3.78;;;;;;;;;;5072507;28;20263;-85
